sensor_id;sensor_type;location;lat;lon;timestamp;temperature;humidity
5711;DHT22;61291;52.524;13.422;2023-02-02T00:01:16;5.30;99.90
5711;DHT22;61291;52.524;13.422;2023-02-02T00:03:42;5.40;99.90
5711;DHT22;61291;52.524;13.422;2023-02-02T00:06:07;5.50;99.90
5711;DHT22;61291;52.524;13.422;2023-02-02T00:08:33;5.60;99.90
5711;DHT22;61291;52.524;13.422;2023-02-02T00:11:00;5.60;99.90
5711;DHT22;61291;52.524;13.422;2023-02-02T00:13:26;5.70;99.90
5711;DHT22;61291;52.524;13.422;2023-02-02T00:15:52;5.70;99.90
5711;DHT22;61291;52.524;13.422;2023-02-02T00:18:17;5.70;99.90
5711;DHT22;61291;52.524;13.422;2023-02-02T00:20:43;5.60;99.90
5711;DHT22;61291;52.524;13.422;2023-02-02T00:23:09;5.80;99.90
5711;DHT22;61291;52.524;13.422;2023-02-02T00:25:35;5.80;99.90
5711;DHT22;61291;52.524;13.422;2023-02-02T00:28:00;5.90;99.90
5711;DHT22;61291;52.524;13.422;2023-02-02T00:30:26;6.00;99.90
5711;DHT22;61291;52.524;13.422;2023-02-02T00:32:51;6.00;99.90
5711;DHT22;61291;52.524;13.422;2023-02-02T00:35:18;6.10;99.90
5711;DHT22;61291;52.524;13.422;2023-02-02T00:37:43;6.10;99.90
5711;DHT22;61291;52.524;13.422;2023-02-02T00:40:09;6.10;99.90
5711;DHT22;61291;52.524;13.422;2023-02-02T00:42:35;6.10;99.90
5711;DHT22;61291;52.524;13.422;2023-02-02T00:45:02;6.10;99.90
5711;DHT22;61291;52.524;13.422;2023-02-02T00:47:45;6.10;99.90
5711;DHT22;61291;52.524;13.422;2023-02-02T00:50:16;6.10;99.90
5711;DHT22;61291;52.524;13.422;2023-02-02T00:52:43;6.10;99.90
5711;DHT22;61291;52.524;13.422;2023-02-02T00:55:10;6.10;99.90
5711;DHT22;61291;52.524;13.422;2023-02-02T00:57:36;6.10;99.90
5711;DHT22;61291;52.524;13.422;2023-02-02T01:00:04;6.10;99.90
5711;DHT22;61291;52.524;13.422;2023-02-02T01:02:31;6.10;99.90
5711;DHT22;61291;52.524;13.422;2023-02-02T01:04:57;6.00;99.90
5711;DHT22;61291;52.524;13.422;2023-02-02T01:07:22;6.00;99.90
5711;DHT22;61291;52.524;13.422;2023-02-02T01:09:48;6.00;99.90
5711;DHT22;61291;52.524;13.422;2023-02-02T01:12:13;6.00;99.90
5711;DHT22;61291;52.524;13.422;2023-02-02T01:14:39;6.00;99.90
5711;DHT22;61291;52.524;13.422;2023-02-02T01:17:04;6.00;99.90
5711;DHT22;61291;52.524;13.422;2023-02-02T01:19:30;5.90;99.90
5711;DHT22;61291;52.524;13.422;2023-02-02T01:21:55;5.90;99.90
5711;DHT22;61291;52.524;13.422;2023-02-02T01:24:21;5.90;99.90
5711;DHT22;61291;52.524;13.422;2023-02-02T01:26:46;5.80;99.90
5711;DHT22;61291;52.524;13.422;2023-02-02T01:29:12;5.80;99.90
5711;DHT22;61291;52.524;13.422;2023-02-02T01:31:38;5.80;99.90
5711;DHT22;61291;52.524;13.422;2023-02-02T01:34:03;5.80;99.90
5711;DHT22;61291;52.524;13.422;2023-02-02T01:36:29;5.80;99.90
5711;DHT22;61291;52.524;13.422;2023-02-02T01:38:54;5.70;99.90
5711;DHT22;61291;52.524;13.422;2023-02-02T01:41:22;5.70;99.90
5711;DHT22;61291;52.524;13.422;2023-02-02T01:43:50;5.70;99.90
5711;DHT22;61291;52.524;13.422;2023-02-02T01:46:29;5.60;99.90
5711;DHT22;61291;52.524;13.422;2023-02-02T01:51:29;5.60;99.90
5711;DHT22;61291;52.524;13.422;2023-02-02T01:53:56;5.60;99.90
5711;DHT22;61291;52.524;13.422;2023-02-02T01:56:30;5.70;99.90
5711;DHT22;61291;52.524;13.422;2023-02-02T01:58:57;5.70;99.90
5711;DHT22;61291;52.524;13.422;2023-02-02T02:01:24;5.70;99.90
5711;DHT22;61291;52.524;13.422;2023-02-02T02:03:49;5.80;99.90
5711;DHT22;61291;52.524;13.422;2023-02-02T02:06:17;5.80;99.90
5711;DHT22;61291;52.524;13.422;2023-02-02T02:08:55;5.70;99.90
5711;DHT22;61291;52.524;13.422;2023-02-02T02:11:22;5.70;99.90
5711;DHT22;61291;52.524;13.422;2023-02-02T02:13:49;5.70;99.90
5711;DHT22;61291;52.524;13.422;2023-02-02T02:16:52;5.70;99.90
5711;DHT22;61291;52.524;13.422;2023-02-02T02:25:47;5.80;99.90
5711;DHT22;61291;52.524;13.422;2023-02-02T02:29:17;5.80;99.90
5711;DHT22;61291;52.524;13.422;2023-02-02T02:32:00;5.80;99.90
5711;DHT22;61291;52.524;13.422;2023-02-02T02:35:02;5.90;99.90
5711;DHT22;61291;52.524;13.422;2023-02-02T02:38:06;5.90;99.90
5711;DHT22;61291;52.524;13.422;2023-02-02T02:40:38;5.90;99.90
5711;DHT22;61291;52.524;13.422;2023-02-02T02:43:12;5.90;99.90
5711;DHT22;61291;52.524;13.422;2023-02-02T02:45:40;6.00;99.90
5711;DHT22;61291;52.524;13.422;2023-02-02T02:48:08;6.00;99.90
5711;DHT22;61291;52.524;13.422;2023-02-02T02:50:34;6.00;99.90
5711;DHT22;61291;52.524;13.422;2023-02-02T02:53:12;6.00;99.90
5711;DHT22;61291;52.524;13.422;2023-02-02T02:55:55;6.10;99.90
5711;DHT22;61291;52.524;13.422;2023-02-02T02:58:40;6.10;99.90
5711;DHT22;61291;52.524;13.422;2023-02-02T03:01:21;6.20;99.90
5711;DHT22;61291;52.524;13.422;2023-02-02T03:06:31;6.20;99.90
5711;DHT22;61291;52.524;13.422;2023-02-02T03:09:15;6.30;99.90
5711;DHT22;61291;52.524;13.422;2023-02-02T03:11:42;6.30;99.90
5711;DHT22;61291;52.524;13.422;2023-02-02T03:14:08;6.30;99.90
5711;DHT22;61291;52.524;13.422;2023-02-02T03:16:35;6.30;99.90
5711;DHT22;61291;52.524;13.422;2023-02-02T03:19:02;6.30;99.90
5711;DHT22;61291;52.524;13.422;2023-02-02T03:21:29;6.40;99.90
5711;DHT22;61291;52.524;13.422;2023-02-02T03:23:55;6.40;99.90
5711;DHT22;61291;52.524;13.422;2023-02-02T03:26:20;6.40;99.90
5711;DHT22;61291;52.524;13.422;2023-02-02T03:28:47;6.50;99.90
5711;DHT22;61291;52.524;13.422;2023-02-02T03:31:13;6.40;99.90
5711;DHT22;61291;52.524;13.422;2023-02-02T03:33:38;6.30;99.90
5711;DHT22;61291;52.524;13.422;2023-02-02T03:36:04;6.30;99.90
5711;DHT22;61291;52.524;13.422;2023-02-02T03:38:30;6.30;99.90
5711;DHT22;61291;52.524;13.422;2023-02-02T03:40:55;6.30;99.90
5711;DHT22;61291;52.524;13.422;2023-02-02T03:43:22;6.30;99.90
5711;DHT22;61291;52.524;13.422;2023-02-02T03:45:56;6.30;99.90
5711;DHT22;61291;52.524;13.422;2023-02-02T03:48:22;6.30;99.90
5711;DHT22;61291;52.524;13.422;2023-02-02T03:50:47;6.40;99.90
5711;DHT22;61291;52.524;13.422;2023-02-02T03:53:12;6.40;99.90
5711;DHT22;61291;52.524;13.422;2023-02-02T03:55:38;6.40;99.90
5711;DHT22;61291;52.524;13.422;2023-02-02T03:58:04;6.40;99.90
5711;DHT22;61291;52.524;13.422;2023-02-02T04:00:30;6.30;99.90
5711;DHT22;61291;52.524;13.422;2023-02-02T04:02:55;6.40;99.90
5711;DHT22;61291;52.524;13.422;2023-02-02T04:05:21;6.50;99.90
5711;DHT22;61291;52.524;13.422;2023-02-02T04:07:46;6.50;99.90
5711;DHT22;61291;52.524;13.422;2023-02-02T04:10:13;6.40;99.90
5711;DHT22;61291;52.524;13.422;2023-02-02T04:12:39;6.50;99.90
5711;DHT22;61291;52.524;13.422;2023-02-02T04:15:04;6.40;99.90
5711;DHT22;61291;52.524;13.422;2023-02-02T04:17:30;6.40;99.90
5711;DHT22;61291;52.524;13.422;2023-02-02T04:19:56;6.40;99.90
5711;DHT22;61291;52.524;13.422;2023-02-02T04:22:23;6.40;99.90
5711;DHT22;61291;52.524;13.422;2023-02-02T04:24:48;6.40;99.90
5711;DHT22;61291;52.524;13.422;2023-02-02T04:27:14;6.40;99.90
5711;DHT22;61291;52.524;13.422;2023-02-02T04:29:39;6.40;99.90
5711;DHT22;61291;52.524;13.422;2023-02-02T04:32:05;6.40;99.90
5711;DHT22;61291;52.524;13.422;2023-02-02T04:34:30;6.40;99.90
5711;DHT22;61291;52.524;13.422;2023-02-02T04:36:57;6.30;99.90
5711;DHT22;61291;52.524;13.422;2023-02-02T04:39:22;6.30;99.90
5711;DHT22;61291;52.524;13.422;2023-02-02T04:41:48;6.30;99.90
5711;DHT22;61291;52.524;13.422;2023-02-02T04:44:14;6.30;99.90
5711;DHT22;61291;52.524;13.422;2023-02-02T04:46:41;6.30;99.90
5711;DHT22;61291;52.524;13.422;2023-02-02T04:49:08;6.30;99.90
5711;DHT22;61291;52.524;13.422;2023-02-02T04:51:34;6.40;99.90
5711;DHT22;61291;52.524;13.422;2023-02-02T04:54:00;6.40;99.90
5711;DHT22;61291;52.524;13.422;2023-02-02T04:56:25;6.40;99.90
5711;DHT22;61291;52.524;13.422;2023-02-02T04:58:52;6.40;99.90
5711;DHT22;61291;52.524;13.422;2023-02-02T05:01:19;6.40;99.90
5711;DHT22;61291;52.524;13.422;2023-02-02T05:03:45;6.40;99.90
5711;DHT22;61291;52.524;13.422;2023-02-02T05:06:11;6.50;99.90
5711;DHT22;61291;52.524;13.422;2023-02-02T05:08:37;6.50;99.90
5711;DHT22;61291;52.524;13.422;2023-02-02T05:11:10;6.40;99.90
5711;DHT22;61291;52.524;13.422;2023-02-02T05:13:35;6.40;99.90
5711;DHT22;61291;52.524;13.422;2023-02-02T05:16:01;6.40;99.90
5711;DHT22;61291;52.524;13.422;2023-02-02T05:18:27;6.30;99.90
5711;DHT22;61291;52.524;13.422;2023-02-02T05:20:53;6.30;99.90
5711;DHT22;61291;52.524;13.422;2023-02-02T05:23:19;6.30;99.90
5711;DHT22;61291;52.524;13.422;2023-02-02T05:25:50;6.20;99.90
5711;DHT22;61291;52.524;13.422;2023-02-02T05:28:16;6.20;99.90
5711;DHT22;61291;52.524;13.422;2023-02-02T05:30:42;6.20;99.90
5711;DHT22;61291;52.524;13.422;2023-02-02T05:33:07;6.10;99.90
5711;DHT22;61291;52.524;13.422;2023-02-02T05:35:33;6.10;99.90
5711;DHT22;61291;52.524;13.422;2023-02-02T05:37:58;6.10;99.90
5711;DHT22;61291;52.524;13.422;2023-02-02T05:40:24;6.00;99.90
5711;DHT22;61291;52.524;13.422;2023-02-02T05:42:49;6.00;99.90
5711;DHT22;61291;52.524;13.422;2023-02-02T05:45:15;6.00;99.90
5711;DHT22;61291;52.524;13.422;2023-02-02T05:47:40;6.10;99.90
5711;DHT22;61291;52.524;13.422;2023-02-02T05:50:06;6.10;99.90
5711;DHT22;61291;52.524;13.422;2023-02-02T05:52:33;6.10;99.90
5711;DHT22;61291;52.524;13.422;2023-02-02T05:54:59;6.10;99.90
5711;DHT22;61291;52.524;13.422;2023-02-02T05:57:25;6.20;99.90
5711;DHT22;61291;52.524;13.422;2023-02-02T05:59:52;6.20;99.90
5711;DHT22;61291;52.524;13.422;2023-02-02T06:02:18;6.20;99.90
5711;DHT22;61291;52.524;13.422;2023-02-02T06:04:43;6.20;99.90
5711;DHT22;61291;52.524;13.422;2023-02-02T06:07:08;6.20;99.90
5711;DHT22;61291;52.524;13.422;2023-02-02T06:09:34;6.30;99.90
5711;DHT22;61291;52.524;13.422;2023-02-02T06:11:59;6.30;99.90
5711;DHT22;61291;52.524;13.422;2023-02-02T06:14:25;6.30;99.90
5711;DHT22;61291;52.524;13.422;2023-02-02T06:16:50;6.30;99.90
5711;DHT22;61291;52.524;13.422;2023-02-02T06:19:16;6.30;99.90
5711;DHT22;61291;52.524;13.422;2023-02-02T06:21:41;6.30;99.90
5711;DHT22;61291;52.524;13.422;2023-02-02T06:24:07;6.30;99.90
5711;DHT22;61291;52.524;13.422;2023-02-02T06:26:32;6.30;99.90
5711;DHT22;61291;52.524;13.422;2023-02-02T06:28:58;6.30;99.90
5711;DHT22;61291;52.524;13.422;2023-02-02T06:31:23;6.30;99.90
5711;DHT22;61291;52.524;13.422;2023-02-02T06:33:54;6.20;99.90
5711;DHT22;61291;52.524;13.422;2023-02-02T06:36:20;6.30;99.90
5711;DHT22;61291;52.524;13.422;2023-02-02T06:38:50;6.20;99.90
5711;DHT22;61291;52.524;13.422;2023-02-02T06:41:17;6.20;99.90
5711;DHT22;61291;52.524;13.422;2023-02-02T06:43:42;6.20;99.90
5711;DHT22;61291;52.524;13.422;2023-02-02T06:46:08;6.20;99.90
5711;DHT22;61291;52.524;13.422;2023-02-02T06:48:34;6.20;99.90
5711;DHT22;61291;52.524;13.422;2023-02-02T06:50:59;6.20;99.90
5711;DHT22;61291;52.524;13.422;2023-02-02T06:53:26;6.20;99.90
5711;DHT22;61291;52.524;13.422;2023-02-02T06:55:53;6.20;99.90
5711;DHT22;61291;52.524;13.422;2023-02-02T06:58:18;6.20;99.90
5711;DHT22;61291;52.524;13.422;2023-02-02T07:00:44;6.20;99.90
5711;DHT22;61291;52.524;13.422;2023-02-02T07:03:09;6.10;99.90
5711;DHT22;61291;52.524;13.422;2023-02-02T07:05:35;6.10;99.90
5711;DHT22;61291;52.524;13.422;2023-02-02T07:08:00;6.10;99.90
5711;DHT22;61291;52.524;13.422;2023-02-02T07:10:25;6.10;99.90
5711;DHT22;61291;52.524;13.422;2023-02-02T07:12:53;6.00;99.90
5711;DHT22;61291;52.524;13.422;2023-02-02T07:15:18;6.10;99.90
5711;DHT22;61291;52.524;13.422;2023-02-02T07:17:44;6.10;99.90
5711;DHT22;61291;52.524;13.422;2023-02-02T07:20:10;6.10;99.90
5711;DHT22;61291;52.524;13.422;2023-02-02T07:22:38;6.20;99.90
5711;DHT22;61291;52.524;13.422;2023-02-02T07:25:03;6.20;99.90
5711;DHT22;61291;52.524;13.422;2023-02-02T07:27:29;6.30;99.90
5711;DHT22;61291;52.524;13.422;2023-02-02T07:29:54;6.30;99.90
5711;DHT22;61291;52.524;13.422;2023-02-02T07:32:20;6.30;99.90
5711;DHT22;61291;52.524;13.422;2023-02-02T07:34:45;6.20;99.90
5711;DHT22;61291;52.524;13.422;2023-02-02T07:37:11;6.10;99.90
5711;DHT22;61291;52.524;13.422;2023-02-02T07:39:36;6.00;99.90
5711;DHT22;61291;52.524;13.422;2023-02-02T07:42:04;5.80;99.90
5711;DHT22;61291;52.524;13.422;2023-02-02T07:44:30;5.80;99.90
5711;DHT22;61291;52.524;13.422;2023-02-02T07:46:55;5.80;99.90
5711;DHT22;61291;52.524;13.422;2023-02-02T07:49:21;5.90;99.90
5711;DHT22;61291;52.524;13.422;2023-02-02T07:51:46;5.80;99.90
5711;DHT22;61291;52.524;13.422;2023-02-02T07:54:14;5.80;99.90
5711;DHT22;61291;52.524;13.422;2023-02-02T07:56:39;5.80;99.90
5711;DHT22;61291;52.524;13.422;2023-02-02T07:59:05;5.80;99.90
5711;DHT22;61291;52.524;13.422;2023-02-02T08:01:31;5.80;99.90
5711;DHT22;61291;52.524;13.422;2023-02-02T08:03:57;5.90;99.90
5711;DHT22;61291;52.524;13.422;2023-02-02T08:06:27;5.90;99.90
5711;DHT22;61291;52.524;13.422;2023-02-02T08:08:54;5.90;99.90
5711;DHT22;61291;52.524;13.422;2023-02-02T08:11:21;5.90;99.90
5711;DHT22;61291;52.524;13.422;2023-02-02T08:13:58;6.00;99.90
5711;DHT22;61291;52.524;13.422;2023-02-02T08:16:25;6.00;99.90
5711;DHT22;61291;52.524;13.422;2023-02-02T08:18:51;6.20;99.90
5711;DHT22;61291;52.524;13.422;2023-02-02T08:21:17;6.30;99.90
5711;DHT22;61291;52.524;13.422;2023-02-02T08:23:44;6.40;99.90
5711;DHT22;61291;52.524;13.422;2023-02-02T08:26:16;6.60;99.90
5711;DHT22;61291;52.524;13.422;2023-02-02T08:28:44;6.70;99.90
5711;DHT22;61291;52.524;13.422;2023-02-02T08:31:14;6.90;99.90
5711;DHT22;61291;52.524;13.422;2023-02-02T08:33:39;7.00;99.90
5711;DHT22;61291;52.524;13.422;2023-02-02T08:36:10;7.00;99.90
5711;DHT22;61291;52.524;13.422;2023-02-02T08:38:36;7.00;99.90
5711;DHT22;61291;52.524;13.422;2023-02-02T08:41:06;7.00;99.90
5711;DHT22;61291;52.524;13.422;2023-02-02T08:43:31;7.00;99.90
5711;DHT22;61291;52.524;13.422;2023-02-02T08:45:57;6.80;99.90
5711;DHT22;61291;52.524;13.422;2023-02-02T08:48:22;6.80;99.90
5711;DHT22;61291;52.524;13.422;2023-02-02T08:50:55;6.80;99.90
5711;DHT22;61291;52.524;13.422;2023-02-02T08:53:22;6.90;99.90
5711;DHT22;61291;52.524;13.422;2023-02-02T08:55:48;6.90;99.90
5711;DHT22;61291;52.524;13.422;2023-02-02T08:58:13;7.00;99.90
5711;DHT22;61291;52.524;13.422;2023-02-02T09:00:39;7.10;99.90
5711;DHT22;61291;52.524;13.422;2023-02-02T09:03:05;7.10;99.90
5711;DHT22;61291;52.524;13.422;2023-02-02T09:05:31;7.40;99.90
5711;DHT22;61291;52.524;13.422;2023-02-02T09:07:56;7.70;99.90
5711;DHT22;61291;52.524;13.422;2023-02-02T09:10:22;8.10;99.90
5711;DHT22;61291;52.524;13.422;2023-02-02T09:12:47;8.10;99.90
5711;DHT22;61291;52.524;13.422;2023-02-02T09:15:13;8.30;99.90
5711;DHT22;61291;52.524;13.422;2023-02-02T09:17:38;8.40;99.90
5711;DHT22;61291;52.524;13.422;2023-02-02T09:20:04;8.60;99.90
5711;DHT22;61291;52.524;13.422;2023-02-02T09:22:31;8.50;99.90
5711;DHT22;61291;52.524;13.422;2023-02-02T09:24:57;8.30;99.90
5711;DHT22;61291;52.524;13.422;2023-02-02T09:27:22;8.20;99.90
5711;DHT22;61291;52.524;13.422;2023-02-02T09:29:48;8.20;99.90
5711;DHT22;61291;52.524;13.422;2023-02-02T09:32:13;8.20;99.90
5711;DHT22;61291;52.524;13.422;2023-02-02T09:34:42;8.30;99.90
5711;DHT22;61291;52.524;13.422;2023-02-02T09:37:07;8.40;99.90
5711;DHT22;61291;52.524;13.422;2023-02-02T09:39:33;8.70;99.90
5711;DHT22;61291;52.524;13.422;2023-02-02T09:42:20;8.90;99.90
5711;DHT22;61291;52.524;13.422;2023-02-02T09:50:05;9.00;99.90
5711;DHT22;61291;52.524;13.422;2023-02-02T09:52:42;8.80;99.90
5711;DHT22;61291;52.524;13.422;2023-02-02T09:55:15;9.10;99.90
5711;DHT22;61291;52.524;13.422;2023-02-02T09:57:51;8.70;99.90
5711;DHT22;61291;52.524;13.422;2023-02-02T10:00:28;8.40;99.90
5711;DHT22;61291;52.524;13.422;2023-02-02T10:03:00;8.70;99.90
5711;DHT22;61291;52.524;13.422;2023-02-02T10:05:35;8.50;99.90
5711;DHT22;61291;52.524;13.422;2023-02-02T10:08:06;8.50;99.90
5711;DHT22;61291;52.524;13.422;2023-02-02T10:10:40;8.90;99.90
5711;DHT22;61291;52.524;13.422;2023-02-02T10:13:24;8.90;99.90
5711;DHT22;61291;52.524;13.422;2023-02-02T10:18:47;8.80;99.90
5711;DHT22;61291;52.524;13.422;2023-02-02T10:24:17;8.50;99.90
5711;DHT22;61291;52.524;13.422;2023-02-02T10:26:51;8.70;99.90
5711;DHT22;61291;52.524;13.422;2023-02-02T10:35:26;8.60;99.90
5711;DHT22;61291;52.524;13.422;2023-02-02T10:37:55;8.40;99.90
5711;DHT22;61291;52.524;13.422;2023-02-02T10:43:52;8.80;99.90
5711;DHT22;61291;52.524;13.422;2023-02-02T10:46:14;8.50;99.90
5711;DHT22;61291;52.524;13.422;2023-02-02T10:48:44;8.30;99.90
5711;DHT22;61291;52.524;13.422;2023-02-02T10:51:23;8.90;99.90
5711;DHT22;61291;52.524;13.422;2023-02-02T10:53:53;9.30;99.90
5711;DHT22;61291;52.524;13.422;2023-02-02T10:56:26;9.30;99.90
5711;DHT22;61291;52.524;13.422;2023-02-02T10:59:10;9.50;99.90
5711;DHT22;61291;52.524;13.422;2023-02-02T11:01:38;9.20;99.90
5711;DHT22;61291;52.524;13.422;2023-02-02T11:04:03;9.10;99.90
5711;DHT22;61291;52.524;13.422;2023-02-02T11:06:48;9.10;99.90
5711;DHT22;61291;52.524;13.422;2023-02-02T11:09:21;9.30;99.90
5711;DHT22;61291;52.524;13.422;2023-02-02T11:11:54;9.60;99.90
5711;DHT22;61291;52.524;13.422;2023-02-02T11:14:36;9.10;99.90
5711;DHT22;61291;52.524;13.422;2023-02-02T11:17:05;9.00;99.90
5711;DHT22;61291;52.524;13.422;2023-02-02T11:19:32;9.50;99.90
5711;DHT22;61291;52.524;13.422;2023-02-02T11:22:01;9.10;99.90
5711;DHT22;61291;52.524;13.422;2023-02-02T11:24:29;9.30;99.90
5711;DHT22;61291;52.524;13.422;2023-02-02T11:26:59;9.30;99.90
5711;DHT22;61291;52.524;13.422;2023-02-02T11:29:31;9.30;99.90
5711;DHT22;61291;52.524;13.422;2023-02-02T11:31:57;9.60;99.90
5711;DHT22;61291;52.524;13.422;2023-02-02T11:34:41;9.90;99.90
5711;DHT22;61291;52.524;13.422;2023-02-02T11:37:12;9.70;99.90
5711;DHT22;61291;52.524;13.422;2023-02-02T11:39:40;9.80;99.90
5711;DHT22;61291;52.524;13.422;2023-02-02T11:44:37;10.50;99.90
5711;DHT22;61291;52.524;13.422;2023-02-02T11:47:04;10.10;99.90
5711;DHT22;61291;52.524;13.422;2023-02-02T11:49:37;10.10;99.90
5711;DHT22;61291;52.524;13.422;2023-02-02T11:52:15;9.30;99.90
5711;DHT22;61291;52.524;13.422;2023-02-02T11:54:46;9.40;99.90
5711;DHT22;61291;52.524;13.422;2023-02-02T11:57:16;9.80;99.90
5711;DHT22;61291;52.524;13.422;2023-02-02T11:59:43;10.00;99.90
5711;DHT22;61291;52.524;13.422;2023-02-02T12:04:45;10.00;99.90
5711;DHT22;61291;52.524;13.422;2023-02-02T12:09:50;10.00;99.90
5711;DHT22;61291;52.524;13.422;2023-02-02T12:12:23;10.10;99.90
5711;DHT22;61291;52.524;13.422;2023-02-02T12:15:07;10.00;99.90
5711;DHT22;61291;52.524;13.422;2023-02-02T12:17:44;9.00;99.90
5711;DHT22;61291;52.524;13.422;2023-02-02T12:20:34;9.00;99.90
5711;DHT22;61291;52.524;13.422;2023-02-02T12:23:32;8.30;99.90
5711;DHT22;61291;52.524;13.422;2023-02-02T12:26:33;8.00;99.90
5711;DHT22;61291;52.524;13.422;2023-02-02T12:29:13;8.20;99.90
5711;DHT22;61291;52.524;13.422;2023-02-02T12:31:49;8.20;99.90
5711;DHT22;61291;52.524;13.422;2023-02-02T12:34:36;8.30;99.90
5711;DHT22;61291;52.524;13.422;2023-02-02T12:42:33;7.90;99.90
5711;DHT22;61291;52.524;13.422;2023-02-02T12:45:19;7.70;99.90
5711;DHT22;61291;52.524;13.422;2023-02-02T12:48:08;7.70;99.90
5711;DHT22;61291;52.524;13.422;2023-02-02T12:50:52;7.60;99.90
5711;DHT22;61291;52.524;13.422;2023-02-02T12:53:31;7.70;99.90
5711;DHT22;61291;52.524;13.422;2023-02-02T12:56:02;7.60;99.90
5711;DHT22;61291;52.524;13.422;2023-02-02T12:58:38;7.40;99.90
5711;DHT22;61291;52.524;13.422;2023-02-02T13:01:33;7.50;99.90
5711;DHT22;61291;52.524;13.422;2023-02-02T13:04:31;7.60;99.90
5711;DHT22;61291;52.524;13.422;2023-02-02T13:07:57;7.70;99.90
5711;DHT22;61291;52.524;13.422;2023-02-02T13:10:16;7.80;99.90
5711;DHT22;61291;52.524;13.422;2023-02-02T13:12:55;8.00;99.90
5711;DHT22;61291;52.524;13.422;2023-02-02T13:15:26;8.40;99.90
5711;DHT22;61291;52.524;13.422;2023-02-02T13:17:56;8.50;99.90
5711;DHT22;61291;52.524;13.422;2023-02-02T13:23:12;8.60;99.90
5711;DHT22;61291;52.524;13.422;2023-02-02T13:26:03;8.70;99.90
5711;DHT22;61291;52.524;13.422;2023-02-02T13:28:45;8.50;99.90
5711;DHT22;61291;52.524;13.422;2023-02-02T13:31:50;8.50;99.90
5711;DHT22;61291;52.524;13.422;2023-02-02T13:34:25;9.00;99.90
5711;DHT22;61291;52.524;13.422;2023-02-02T13:37:26;9.20;99.90
5711;DHT22;61291;52.524;13.422;2023-02-02T13:39:58;9.00;99.90
5711;DHT22;61291;52.524;13.422;2023-02-02T13:42:42;9.00;99.90
5711;DHT22;61291;52.524;13.422;2023-02-02T13:47:54;9.20;99.90
5711;DHT22;61291;52.524;13.422;2023-02-02T13:50:21;9.20;99.90
5711;DHT22;61291;52.524;13.422;2023-02-02T13:53:26;9.30;99.90
5711;DHT22;61291;52.524;13.422;2023-02-02T13:56:35;9.40;99.90
5711;DHT22;61291;52.524;13.422;2023-02-02T14:01:52;8.90;99.90
5711;DHT22;61291;52.524;13.422;2023-02-02T14:04:26;8.60;99.90
5711;DHT22;61291;52.524;13.422;2023-02-02T14:07:02;8.30;99.90
5711;DHT22;61291;52.524;13.422;2023-02-02T14:09:32;7.80;99.90
5711;DHT22;61291;52.524;13.422;2023-02-02T14:12:02;7.80;99.90
5711;DHT22;61291;52.524;13.422;2023-02-02T14:14:31;7.80;99.90
5711;DHT22;61291;52.524;13.422;2023-02-02T14:19:47;7.40;99.90
5711;DHT22;61291;52.524;13.422;2023-02-02T14:29:36;7.20;99.90
5711;DHT22;61291;52.524;13.422;2023-02-02T14:34:53;7.00;99.90
5711;DHT22;61291;52.524;13.422;2023-02-02T14:48:10;6.40;99.90
5711;DHT22;61291;52.524;13.422;2023-02-02T14:53:28;6.30;99.90
5711;DHT22;61291;52.524;13.422;2023-02-02T14:56:14;6.30;99.90
5711;DHT22;61291;52.524;13.422;2023-02-02T14:59:01;6.30;99.90
5711;DHT22;61291;52.524;13.422;2023-02-02T15:01:30;6.30;99.90
5711;DHT22;61291;52.524;13.422;2023-02-02T15:06:44;6.10;99.90
5711;DHT22;61291;52.524;13.422;2023-02-02T15:17:11;6.10;99.90
5711;DHT22;61291;52.524;13.422;2023-02-02T15:19:44;6.00;99.90
5711;DHT22;61291;52.524;13.422;2023-02-02T15:22:29;5.90;99.90
5711;DHT22;61291;52.524;13.422;2023-02-02T15:24:57;5.80;99.90
5711;DHT22;61291;52.524;13.422;2023-02-02T15:27:25;5.70;99.90
5711;DHT22;61291;52.524;13.422;2023-02-02T15:30:00;5.60;99.90
5711;DHT22;61291;52.524;13.422;2023-02-02T15:32:27;5.40;99.90
5711;DHT22;61291;52.524;13.422;2023-02-02T15:34:58;5.40;99.90
5711;DHT22;61291;52.524;13.422;2023-02-02T15:37:30;5.30;99.90
5711;DHT22;61291;52.524;13.422;2023-02-02T15:40:02;5.20;99.90
5711;DHT22;61291;52.524;13.422;2023-02-02T15:42:47;5.20;99.90
5711;DHT22;61291;52.524;13.422;2023-02-02T15:45:48;5.10;99.90
5711;DHT22;61291;52.524;13.422;2023-02-02T15:50:47;4.90;99.90
5711;DHT22;61291;52.524;13.422;2023-02-02T15:53:18;4.70;99.90
5711;DHT22;61291;52.524;13.422;2023-02-02T15:55:44;4.80;99.90
5711;DHT22;61291;52.524;13.422;2023-02-02T15:58:31;4.60;99.90
5711;DHT22;61291;52.524;13.422;2023-02-02T16:01:03;4.60;99.90
5711;DHT22;61291;52.524;13.422;2023-02-02T16:03:55;4.50;99.90
5711;DHT22;61291;52.524;13.422;2023-02-02T16:06:18;4.50;99.90
5711;DHT22;61291;52.524;13.422;2023-02-02T16:08:45;4.40;99.90
5711;DHT22;61291;52.524;13.422;2023-02-02T16:11:14;4.20;99.90
5711;DHT22;61291;52.524;13.422;2023-02-02T16:13:43;4.10;99.90
5711;DHT22;61291;52.524;13.422;2023-02-02T16:16:24;4.10;99.90
5711;DHT22;61291;52.524;13.422;2023-02-02T16:19:11;4.10;99.90
5711;DHT22;61291;52.524;13.422;2023-02-02T16:21:43;4.00;99.90
5711;DHT22;61291;52.524;13.422;2023-02-02T16:24:38;4.00;99.90
5711;DHT22;61291;52.524;13.422;2023-02-02T16:27:06;3.90;99.90
5711;DHT22;61291;52.524;13.422;2023-02-02T16:29:33;3.80;99.90
5711;DHT22;61291;52.524;13.422;2023-02-02T16:31:58;3.90;99.90
5711;DHT22;61291;52.524;13.422;2023-02-02T16:37:10;3.70;99.90
5711;DHT22;61291;52.524;13.422;2023-02-02T16:39:36;3.60;99.90
5711;DHT22;61291;52.524;13.422;2023-02-02T16:42:30;3.50;99.90
5711;DHT22;61291;52.524;13.422;2023-02-02T16:44:56;3.50;99.90
5711;DHT22;61291;52.524;13.422;2023-02-02T16:49:53;3.50;99.90
5711;DHT22;61291;52.524;13.422;2023-02-02T16:52:28;3.50;99.90
5711;DHT22;61291;52.524;13.422;2023-02-02T16:54:55;3.50;99.90
5711;DHT22;61291;52.524;13.422;2023-02-02T16:57:26;3.40;99.90
5711;DHT22;61291;52.524;13.422;2023-02-02T16:59:55;3.40;99.90
5711;DHT22;61291;52.524;13.422;2023-02-02T17:02:35;3.40;99.90
5711;DHT22;61291;52.524;13.422;2023-02-02T17:05:15;3.40;99.90
5711;DHT22;61291;52.524;13.422;2023-02-02T17:07:53;3.40;99.90
5711;DHT22;61291;52.524;13.422;2023-02-02T17:10:23;3.40;99.90
5711;DHT22;61291;52.524;13.422;2023-02-02T17:12:49;3.30;99.90
5711;DHT22;61291;52.524;13.422;2023-02-02T17:17:46;3.40;99.90
5711;DHT22;61291;52.524;13.422;2023-02-02T17:20:13;3.40;99.90
5711;DHT22;61291;52.524;13.422;2023-02-02T17:22:42;3.40;99.90
5711;DHT22;61291;52.524;13.422;2023-02-02T17:25:18;3.30;99.90
5711;DHT22;61291;52.524;13.422;2023-02-02T17:27:45;3.30;99.90
5711;DHT22;61291;52.524;13.422;2023-02-02T17:30:18;3.30;99.90
5711;DHT22;61291;52.524;13.422;2023-02-02T17:32:43;3.30;99.90
5711;DHT22;61291;52.524;13.422;2023-02-02T17:35:17;3.30;99.90
5711;DHT22;61291;52.524;13.422;2023-02-02T17:37:43;3.20;99.90
5711;DHT22;61291;52.524;13.422;2023-02-02T17:40:13;3.30;99.90
5711;DHT22;61291;52.524;13.422;2023-02-02T17:42:39;3.30;99.90
5711;DHT22;61291;52.524;13.422;2023-02-02T17:45:16;3.30;99.90
5711;DHT22;61291;52.524;13.422;2023-02-02T17:47:42;3.20;99.90